Time;durP1;ratioP1;P1;durP2;ratioP2;P2;SDS_P1;SDS_P2;PMS_P1;PMS_P2;Temp;Humidity;BMP_temperature;BMP_pressure;BME280_temperature;BME280_humidity;BME280_pressure;Samples;Min_cycle;Max_cycle;Signal;HPM_P1;HPM_P2
2023/02/26 00:00:26;;;;;;;;;17.75;13.25;;;;;;;;5075580;27;51397;-51
2023/02/26 00:03:10;;;;;;;;;20.25;15.25;;;;;;;;5100393;27;51097;-49
2023/02/26 00:05:58;;;;;;;;;19.25;11.50;;;;;;;;5100468;27;51044;-50
2023/02/26 00:08:42;;;;;;;;;15.00;13.25;;;;;;;;5100404;27;51067;-52
2023/02/26 00:11:27;;;;;;;;;16.00;13.50;;;;;;;;5100114;27;51417;-47
2023/02/26 00:14:13;;;;;;;;;17.75;12.00;;;;;;;;5100178;27;51062;-49
2023/02/26 00:17:16;;;;;;;;;16.25;11.00;;;;;;;;5070158;27;51174;-51
2023/02/26 00:20:00;;;;;;;;;18.25;13.00;;;;;;;;5081328;27;51285;-49
2023/02/26 00:22:45;;;;;;;;;14.50;13.50;;;;;;;;5076771;27;51094;-50
2023/02/26 00:25:29;;;;;;;;;16.25;12.00;;;;;;;;5079622;27;51476;-48
2023/02/26 00:28:14;;;;;;;;;18.25;12.75;;;;;;;;5072784;28;51135;-47
2023/02/26 00:30:58;;;;;;;;;20.25;17.50;;;;;;;;5079358;28;51248;-51
2023/02/26 00:33:43;;;;;;;;;19.25;15.25;;;;;;;;5072061;28;51092;-50
2023/02/26 00:36:40;;;;;;;;;13.00;13.00;;;;;;;;5077012;28;51006;-50
2023/02/26 00:39:35;;;;;;;;;7.75;5.50;;;;;;;;5072147;28;51527;-54
2023/02/26 00:42:19;;;;;;;;;12.25;6.25;;;;;;;;5066544;28;51458;-53
2023/02/26 00:45:04;;;;;;;;;11.75;5.50;;;;;;;;5077669;28;51075;-49
2023/02/26 00:47:51;;;;;;;;;9.00;6.75;;;;;;;;5079719;28;50990;-52
2023/02/26 00:50:35;;;;;;;;;6.75;5.00;;;;;;;;5074805;28;51040;-52
2023/02/26 00:53:42;;;;;;;;;9.00;6.25;;;;;;;;5079385;28;51147;-49
2023/02/26 00:56:27;;;;;;;;;8.00;6.00;;;;;;;;5078759;28;51330;-51
2023/02/26 00:59:11;;;;;;;;;5.50;4.00;;;;;;;;5079467;28;51087;-50
2023/02/26 01:01:55;;;;;;;;;9.50;7.00;;;;;;;;5078476;28;51267;-55
2023/02/26 01:04:40;;;;;;;;;7.50;6.50;;;;;;;;5079438;28;51191;-54
2023/02/26 01:07:25;;;;;;;;;11.75;9.75;;;;;;;;5079195;28;51288;-50
2023/02/26 01:10:10;;;;;;;;;11.00;6.00;;;;;;;;5079076;28;51182;-55
2023/02/26 01:12:55;;;;;;;;;14.00;9.25;;;;;;;;5071678;28;51512;-53
2023/02/26 01:15:43;;;;;;;;;8.75;7.75;;;;;;;;5078254;28;51435;-53
2023/02/26 01:18:30;;;;;;;;;9.25;7.25;;;;;;;;5070514;28;51169;-51
2023/02/26 01:21:18;;;;;;;;;13.25;9.00;;;;;;;;5072994;28;51143;-48
2023/02/26 01:24:04;;;;;;;;;13.00;10.50;;;;;;;;5083097;27;51084;-48
2023/02/26 01:26:49;;;;;;;;;13.25;9.00;;;;;;;;5088565;27;51358;-53
2023/02/26 01:29:33;;;;;;;;;9.50;9.50;;;;;;;;5079047;27;51273;-50
2023/02/26 01:32:34;;;;;;;;;13.25;8.25;;;;;;;;5081005;27;51154;-51
2023/02/26 01:35:40;;;;;;;;;14.25;10.75;;;;;;;;5080965;27;51105;-50
2023/02/26 01:38:27;;;;;;;;;14.50;8.50;;;;;;;;5083043;27;51177;-54
2023/02/26 01:41:27;;;;;;;;;10.50;9.00;;;;;;;;5072361;27;51457;-54
2023/02/26 01:44:14;;;;;;;;;12.75;8.25;;;;;;;;5092696;27;51144;-51
2023/02/26 01:47:12;;;;;;;;;14.00;10.25;;;;;;;;5071727;27;51153;-50
2023/02/26 01:49:57;;;;;;;;;13.75;11.25;;;;;;;;5069891;27;51178;-52
2023/02/26 01:52:47;;;;;;;;;19.25;10.75;;;;;;;;5074960;27;51500;-51
2023/02/26 01:55:32;;;;;;;;;16.00;14.00;;;;;;;;5089159;27;51598;-52
2023/02/26 01:58:17;;;;;;;;;16.25;13.50;;;;;;;;5078105;27;51292;-48
2023/02/26 02:01:02;;;;;;;;;16.50;12.00;;;;;;;;5078786;27;51118;-48
2023/02/26 02:03:46;;;;;;;;;17.50;13.00;;;;;;;;5074437;27;51110;-51
2023/02/26 02:06:30;;;;;;;;;18.75;13.75;;;;;;;;5079384;27;51356;-53
2023/02/26 02:09:15;;;;;;;;;18.00;16.50;;;;;;;;5079646;27;51934;-51
2023/02/26 02:12:07;;;;;;;;;29.25;18.75;;;;;;;;5079445;27;51121;-50
2023/02/26 02:14:58;;;;;;;;;24.50;17.75;;;;;;;;5080226;27;51200;-50
2023/02/26 02:17:46;;;;;;;;;21.50;18.00;;;;;;;;5079996;27;51346;-51
2023/02/26 02:20:51;;;;;;;;;19.00;15.75;;;;;;;;5081346;27;51165;-52
2023/02/26 02:23:50;;;;;;;;;22.50;13.00;;;;;;;;5080426;27;51571;-53
2023/02/26 02:26:35;;;;;;;;;21.00;14.50;;;;;;;;5079677;27;51138;-52
2023/02/26 02:29:39;;;;;;;;;23.25;18.50;;;;;;;;5075535;27;51057;-52
2023/02/26 02:32:30;;;;;;;;;29.00;18.00;;;;;;;;5035627;27;51071;-49
2023/02/26 02:35:14;;;;;;;;;21.25;15.50;;;;;;;;5071073;27;51181;-51
2023/02/26 02:38:04;;;;;;;;;23.00;18.25;;;;;;;;5080016;27;51259;-51
2023/02/26 02:40:51;;;;;;;;;28.00;18.00;;;;;;;;5096217;27;51253;-52
2023/02/26 02:43:36;;;;;;;;;24.00;15.50;;;;;;;;5086485;27;51155;-51
2023/02/26 02:46:25;;;;;;;;;22.25;17.25;;;;;;;;5101717;27;51182;-49
2023/02/26 02:49:14;;;;;;;;;26.25;20.00;;;;;;;;5079375;27;51092;-48
2023/02/26 02:52:05;;;;;;;;;18.75;16.25;;;;;;;;5080860;27;51187;-50
2023/02/26 02:54:53;;;;;;;;;22.50;16.50;;;;;;;;5079339;27;51387;-53
2023/02/26 02:57:41;;;;;;;;;22.50;17.75;;;;;;;;5080932;27;51447;-49
2023/02/26 03:00:27;;;;;;;;;25.25;15.75;;;;;;;;5089543;27;51071;-49
2023/02/26 03:03:11;;;;;;;;;23.75;19.00;;;;;;;;5101167;27;51127;-49
2023/02/26 03:05:55;;;;;;;;;20.00;18.25;;;;;;;;5101662;27;51117;-54
2023/02/26 03:08:40;;;;;;;;;29.00;18.50;;;;;;;;5101204;27;51000;-51
2023/02/26 03:11:24;;;;;;;;;21.75;17.75;;;;;;;;5101091;27;51059;-49
2023/02/26 03:14:10;;;;;;;;;18.75;13.75;;;;;;;;5089673;27;51118;-49
2023/02/26 03:17:03;;;;;;;;;26.75;17.75;;;;;;;;5065172;27;51161;-53
2023/02/26 03:20:04;;;;;;;;;21.50;17.00;;;;;;;;5062919;27;51072;-49
2023/02/26 03:23:03;;;;;;;;;22.00;18.50;;;;;;;;5065906;27;51154;-50
2023/02/26 03:25:56;;;;;;;;;27.25;17.75;;;;;;;;5076397;27;51492;-52
2023/02/26 03:28:55;;;;;;;;;19.00;13.25;;;;;;;;5075302;27;51289;-51
2023/02/26 03:31:49;;;;;;;;;15.25;12.25;;;;;;;;5076715;27;53104;-47
2023/02/26 03:34:38;;;;;;;;;14.50;12.25;;;;;;;;5071690;27;51543;-51
2023/02/26 03:37:25;;;;;;;;;20.75;15.00;;;;;;;;5072955;27;51088;-52
2023/02/26 03:40:15;;;;;;;;;19.25;14.75;;;;;;;;5076099;27;51546;-53
2023/02/26 03:43:04;;;;;;;;;18.50;14.75;;;;;;;;5073078;27;51188;-52
2023/02/26 03:45:49;;;;;;;;;17.00;14.50;;;;;;;;5065867;27;51148;-53
2023/02/26 03:48:34;;;;;;;;;18.50;14.50;;;;;;;;5079329;27;51431;-48
2023/02/26 03:51:19;;;;;;;;;20.00;14.00;;;;;;;;5079279;27;51555;-51
2023/02/26 03:54:07;;;;;;;;;15.25;14.25;;;;;;;;5079994;27;51085;-49
2023/02/26 03:56:51;;;;;;;;;18.75;16.75;;;;;;;;5080165;27;51163;-47
2023/02/26 03:59:36;;;;;;;;;18.25;14.00;;;;;;;;5079632;27;51108;-48
2023/02/26 04:02:34;;;;;;;;;18.75;13.75;;;;;;;;5080060;27;51161;-49
2023/02/26 04:05:20;;;;;;;;;16.25;14.50;;;;;;;;5079938;27;51351;-53
2023/02/26 04:08:04;;;;;;;;;16.50;15.50;;;;;;;;5079625;27;51122;-50
2023/02/26 04:10:51;;;;;;;;;23.75;17.50;;;;;;;;5080033;27;51126;-49
2023/02/26 04:13:36;;;;;;;;;17.75;14.75;;;;;;;;5079617;27;51085;-46
2023/02/26 04:16:21;;;;;;;;;25.00;17.75;;;;;;;;5079866;27;51047;-48
2023/02/26 04:19:05;;;;;;;;;19.25;14.50;;;;;;;;5078966;28;51041;-49
2023/02/26 04:21:49;;;;;;;;;24.75;15.00;;;;;;;;5079986;28;51029;-51
2023/02/26 04:24:33;;;;;;;;;24.75;19.25;;;;;;;;5086711;27;51281;-52
2023/02/26 04:27:18;;;;;;;;;23.50;19.00;;;;;;;;5100155;27;51051;-48
2023/02/26 04:30:02;;;;;;;;;22.25;17.75;;;;;;;;5081155;27;51443;-52
2023/02/26 04:32:47;;;;;;;;;18.75;16.50;;;;;;;;5079550;27;51031;-48
2023/02/26 04:35:32;;;;;;;;;22.50;18.25;;;;;;;;5080062;27;51039;-50
2023/02/26 04:38:16;;;;;;;;;24.00;18.75;;;;;;;;5080818;27;51441;-53
2023/02/26 04:41:00;;;;;;;;;23.00;19.00;;;;;;;;5100141;27;51051;-47
2023/02/26 04:43:45;;;;;;;;;19.50;19.25;;;;;;;;5100033;27;51217;-50
2023/02/26 04:46:29;;;;;;;;;33.50;20.25;;;;;;;;5100189;27;51124;-51
2023/02/26 04:49:14;;;;;;;;;29.25;21.25;;;;;;;;5099761;27;51439;-47
2023/02/26 04:51:58;;;;;;;;;35.00;23.25;;;;;;;;5090016;27;51200;-53
2023/02/26 04:54:42;;;;;;;;;23.75;21.75;;;;;;;;5071131;27;51419;-49
2023/02/26 04:57:27;;;;;;;;;29.50;20.00;;;;;;;;5080178;27;51133;-50
2023/02/26 05:00:12;;;;;;;;;27.75;23.00;;;;;;;;5083493;27;51145;-50
2023/02/26 05:02:56;;;;;;;;;29.50;20.00;;;;;;;;5062263;27;51176;-55
2023/02/26 05:05:41;;;;;;;;;30.25;22.00;;;;;;;;5087620;27;51103;-50
2023/02/26 05:08:25;;;;;;;;;24.50;21.50;;;;;;;;5103488;27;51241;-51
2023/02/26 05:11:10;;;;;;;;;22.50;19.25;;;;;;;;5103854;27;51102;-48
2023/02/26 05:13:54;;;;;;;;;27.75;21.75;;;;;;;;5103503;27;51491;-51
2023/02/26 05:16:38;;;;;;;;;21.25;16.00;;;;;;;;5095558;27;51149;-54
2023/02/26 05:19:23;;;;;;;;;22.50;16.25;;;;;;;;5071910;27;51415;-52
2023/02/26 05:22:07;;;;;;;;;22.75;17.75;;;;;;;;5077924;27;51139;-47
2023/02/26 05:24:52;;;;;;;;;24.25;15.75;;;;;;;;5083239;27;51161;-52
2023/02/26 05:27:36;;;;;;;;;16.50;15.25;;;;;;;;5079592;27;51602;-52
2023/02/26 05:30:21;;;;;;;;;17.00;15.75;;;;;;;;5082728;27;51227;-50
2023/02/26 05:33:05;;;;;;;;;19.00;14.00;;;;;;;;5082490;27;51052;-52
2023/02/26 05:35:50;;;;;;;;;20.75;15.50;;;;;;;;5083030;27;51078;-51
2023/02/26 05:38:34;;;;;;;;;16.00;14.50;;;;;;;;5082195;27;50997;-48
2023/02/26 05:41:18;;;;;;;;;19.50;16.00;;;;;;;;5082675;27;51056;-52
2023/02/26 05:44:03;;;;;;;;;19.50;15.75;;;;;;;;5082678;27;51397;-50
2023/02/26 05:46:47;;;;;;;;;19.75;15.50;;;;;;;;5071364;27;51038;-51
2023/02/26 05:49:32;;;;;;;;;18.25;14.75;;;;;;;;5082526;27;50982;-49
2023/02/26 05:52:16;;;;;;;;;20.50;13.25;;;;;;;;5082347;27;51489;-51
2023/02/26 05:55:01;;;;;;;;;19.25;12.50;;;;;;;;5082617;27;51408;-48
2023/02/26 05:57:45;;;;;;;;;19.25;13.00;;;;;;;;5081837;27;51252;-53
2023/02/26 06:00:30;;;;;;;;;25.50;17.25;;;;;;;;5082471;27;51130;-51
2023/02/26 06:03:14;;;;;;;;;22.00;15.00;;;;;;;;5082040;27;51363;-51
2023/02/26 06:05:58;;;;;;;;;22.25;16.50;;;;;;;;5082213;27;51047;-49
2023/02/26 06:08:43;;;;;;;;;15.25;13.25;;;;;;;;5082000;27;51150;-52
2023/02/26 06:11:29;;;;;;;;;25.50;18.25;;;;;;;;5079820;27;51146;-51
2023/02/26 06:14:13;;;;;;;;;23.00;15.75;;;;;;;;5082322;27;51014;-51
2023/02/26 06:16:57;;;;;;;;;16.25;13.50;;;;;;;;5081618;27;51538;-52
2023/02/26 06:19:42;;;;;;;;;15.50;14.00;;;;;;;;5079150;27;51435;-51
2023/02/26 06:22:26;;;;;;;;;18.00;12.25;;;;;;;;5081517;27;51247;-48
2023/02/26 06:25:11;;;;;;;;;20.25;16.00;;;;;;;;5094388;27;51117;-48
2023/02/26 06:27:55;;;;;;;;;25.75;18.00;;;;;;;;5101773;27;51066;-50
2023/02/26 06:30:40;;;;;;;;;26.00;17.25;;;;;;;;5102147;27;52017;-50
2023/02/26 06:33:24;;;;;;;;;22.50;18.50;;;;;;;;5102057;27;51437;-48
2023/02/26 06:36:08;;;;;;;;;26.25;19.25;;;;;;;;5101895;27;51148;-49
2023/02/26 06:38:53;;;;;;;;;21.25;17.75;;;;;;;;5086386;27;51069;-49
2023/02/26 06:41:37;;;;;;;;;24.50;20.00;;;;;;;;5080018;27;51460;-50
2023/02/26 06:44:22;;;;;;;;;23.25;16.25;;;;;;;;5081769;27;51376;-52
2023/02/26 06:47:06;;;;;;;;;27.75;20.50;;;;;;;;5081128;27;51180;-53
2023/02/26 06:49:50;;;;;;;;;21.75;18.50;;;;;;;;5081601;27;51137;-52
2023/02/26 06:52:35;;;;;;;;;22.00;17.50;;;;;;;;5081060;27;51502;-53
2023/02/26 06:55:20;;;;;;;;;22.25;18.25;;;;;;;;5081446;27;51174;-50
2023/02/26 06:58:05;;;;;;;;;28.00;15.25;;;;;;;;5080864;27;51173;-52
2023/02/26 07:00:49;;;;;;;;;23.50;18.00;;;;;;;;5076859;27;51120;-54
2023/02/26 07:03:34;;;;;;;;;20.00;17.00;;;;;;;;5087958;27;51163;-52
2023/02/26 07:06:18;;;;;;;;;28.25;19.25;;;;;;;;5101140;27;51347;-51
2023/02/26 07:09:02;;;;;;;;;28.75;22.50;;;;;;;;5101147;27;51054;-52
2023/02/26 07:11:47;;;;;;;;;28.25;21.00;;;;;;;;5091722;27;51154;-51
2023/02/26 07:14:31;;;;;;;;;24.50;19.75;;;;;;;;5070314;27;51191;-52
2023/02/26 07:17:19;;;;;;;;;39.25;26.50;;;;;;;;5080550;27;51148;-55
2023/02/26 07:20:09;;;;;;;;;35.25;27.25;;;;;;;;5079938;27;51179;-49
2023/02/26 07:22:53;;;;;;;;;34.25;24.50;;;;;;;;5080671;27;51111;-51
2023/02/26 07:25:37;;;;;;;;;36.50;25.00;;;;;;;;5080273;27;51056;-53
2023/02/26 07:28:23;;;;;;;;;25.25;18.50;;;;;;;;5078965;27;51090;-52
2023/02/26 07:31:07;;;;;;;;;27.75;20.25;;;;;;;;5080156;27;51529;-54
2023/02/26 07:33:51;;;;;;;;;22.00;15.50;;;;;;;;5080719;27;51559;-51
2023/02/26 07:36:36;;;;;;;;;26.25;19.75;;;;;;;;5080221;27;51186;-50
2023/02/26 07:39:20;;;;;;;;;20.75;16.00;;;;;;;;5080409;27;51175;-55
2023/02/26 07:42:05;;;;;;;;;34.75;32.00;;;;;;;;5079874;27;51435;-53
2023/02/26 07:44:49;;;;;;;;;43.50;33.25;;;;;;;;5080112;27;51188;-50
2023/02/26 07:47:34;;;;;;;;;44.75;35.75;;;;;;;;5080411;27;51543;-51
2023/02/26 07:50:18;;;;;;;;;43.75;34.00;;;;;;;;5078399;27;51456;-51
2023/02/26 07:53:03;;;;;;;;;45.00;36.50;;;;;;;;5080023;27;51084;-50
2023/02/26 07:55:47;;;;;;;;;34.00;31.25;;;;;;;;5075634;27;51139;-51
2023/02/26 07:58:32;;;;;;;;;45.50;33.50;;;;;;;;5079955;27;51515;-49
2023/02/26 08:01:16;;;;;;;;;33.75;26.25;;;;;;;;5079725;27;51083;-51
2023/02/26 08:04:01;;;;;;;;;39.00;29.25;;;;;;;;5080284;27;51124;-51
2023/02/26 08:06:45;;;;;;;;;28.25;27.25;;;;;;;;5079828;27;51033;-50
2023/02/26 08:09:29;;;;;;;;;34.25;27.50;;;;;;;;5076338;27;51111;-52
2023/02/26 08:12:14;;;;;;;;;31.25;27.25;;;;;;;;5076171;27;51076;-49
2023/02/26 08:14:58;;;;;;;;;36.75;27.50;;;;;;;;5075977;27;51189;-51
2023/02/26 08:17:43;;;;;;;;;30.75;25.00;;;;;;;;5074947;28;51094;-52
2023/02/26 08:20:27;;;;;;;;;29.25;24.75;;;;;;;;5067173;28;51229;-52
2023/02/26 08:23:11;;;;;;;;;32.50;28.50;;;;;;;;5075523;28;51378;-51
2023/02/26 08:26:00;;;;;;;;;32.75;29.50;;;;;;;;5079559;28;51138;-49
2023/02/26 08:28:46;;;;;;;;;27.25;24.25;;;;;;;;5080132;28;51113;-48
2023/02/26 08:31:30;;;;;;;;;32.25;28.25;;;;;;;;5075639;28;51465;-53
2023/02/26 08:34:14;;;;;;;;;35.25;29.75;;;;;;;;5079012;27;51066;-50
2023/02/26 08:36:59;;;;;;;;;45.25;33.75;;;;;;;;5071508;27;51132;-51
2023/02/26 08:39:43;;;;;;;;;39.50;32.75;;;;;;;;5075582;27;51111;-50
2023/02/26 08:42:28;;;;;;;;;53.25;39.25;;;;;;;;5083488;27;50976;-48
2023/02/26 08:45:12;;;;;;;;;50.75;37.00;;;;;;;;5075751;27;51096;-54
2023/02/26 08:47:57;;;;;;;;;52.50;41.25;;;;;;;;5072304;27;51193;-52
2023/02/26 08:50:41;;;;;;;;;49.75;39.00;;;;;;;;5082121;27;51043;-49
2023/02/26 08:53:26;;;;;;;;;55.00;42.50;;;;;;;;5084023;27;51204;-49
2023/02/26 08:56:10;;;;;;;;;51.75;41.00;;;;;;;;5083503;27;51111;-51
2023/02/26 08:58:54;;;;;;;;;55.75;42.75;;;;;;;;5077385;27;51075;-48
2023/02/26 09:01:39;;;;;;;;;52.50;40.50;;;;;;;;5068728;27;51695;-51
2023/02/26 09:04:25;;;;;;;;;24.75;18.50;;;;;;;;5074745;27;51323;-52
2023/02/26 09:07:09;;;;;;;;;27.50;24.25;;;;;;;;5074506;27;51145;-51
2023/02/26 09:09:54;;;;;;;;;33.50;22.50;;;;;;;;5069118;27;51430;-55
2023/02/26 09:12:38;;;;;;;;;20.75;16.75;;;;;;;;5071551;27;51175;-51
2023/02/26 09:15:23;;;;;;;;;22.00;18.25;;;;;;;;5073384;27;51136;-51
2023/02/26 09:18:14;;;;;;;;;20.00;18.50;;;;;;;;5078025;27;50978;-55
2023/02/26 09:20:58;;;;;;;;;25.50;21.00;;;;;;;;5077116;27;51356;-54
2023/02/26 09:23:42;;;;;;;;;20.50;15.50;;;;;;;;5078234;27;51210;-55
2023/02/26 09:26:27;;;;;;;;;26.50;16.75;;;;;;;;5064579;27;51095;-52
2023/02/26 09:29:13;;;;;;;;;21.25;15.25;;;;;;;;5071788;27;51095;-53
2023/02/26 09:31:57;;;;;;;;;20.25;15.00;;;;;;;;5079583;27;51070;-51
2023/02/26 09:34:41;;;;;;;;;24.00;16.75;;;;;;;;5078758;27;51241;-54
2023/02/26 09:37:26;;;;;;;;;24.50;17.00;;;;;;;;5082957;27;51228;-53
2023/02/26 09:40:20;;;;;;;;;20.00;16.25;;;;;;;;5081185;27;51091;-49
2023/02/26 09:43:04;;;;;;;;;17.00;14.50;;;;;;;;5075584;27;51244;-52
2023/02/26 09:45:49;;;;;;;;;20.00;14.75;;;;;;;;5075651;27;51360;-52
2023/02/26 09:48:35;;;;;;;;;23.00;18.75;;;;;;;;5082699;27;51124;-52
2023/02/26 09:51:21;;;;;;;;;26.50;19.25;;;;;;;;5076806;27;51430;-50
2023/02/26 09:54:13;;;;;;;;;19.75;15.25;;;;;;;;5078860;27;51087;-50
2023/02/26 09:56:58;;;;;;;;;21.25;18.50;;;;;;;;5078011;27;51175;-55
2023/02/26 09:59:43;;;;;;;;;23.50;18.25;;;;;;;;5070256;27;51203;-52
2023/02/26 10:02:33;;;;;;;;;23.00;15.50;;;;;;;;5082474;27;51551;-53
2023/02/26 10:05:19;;;;;;;;;25.25;18.50;;;;;;;;5077935;27;51029;-54
2023/02/26 10:08:06;;;;;;;;;24.75;17.00;;;;;;;;5082476;27;51148;-53
2023/02/26 10:10:54;;;;;;;;;19.00;14.25;;;;;;;;5082123;27;51071;-54
2023/02/26 10:14:04;;;;;;;;;21.25;16.50;;;;;;;;5082303;27;51009;-52
2023/02/26 10:16:50;;;;;;;;;15.25;13.25;;;;;;;;5081555;27;51479;-53
2023/02/26 10:19:38;;;;;;;;;25.75;14.75;;;;;;;;5077592;27;51199;-52
2023/02/26 10:22:30;;;;;;;;;18.75;15.25;;;;;;;;5081669;27;51500;-51
2023/02/26 10:25:21;;;;;;;;;22.50;17.25;;;;;;;;5081767;27;51115;-51
2023/02/26 10:28:09;;;;;;;;;20.00;16.25;;;;;;;;5081809;27;51495;-52
2023/02/26 10:30:57;;;;;;;;;20.50;15.00;;;;;;;;5081277;27;51234;-51
2023/02/26 10:34:00;;;;;;;;;17.50;13.25;;;;;;;;5081838;27;51237;-52
2023/02/26 10:36:47;;;;;;;;;23.25;17.00;;;;;;;;5081339;27;51181;-50
2023/02/26 10:39:52;;;;;;;;;23.75;17.25;;;;;;;;5081550;27;51118;-56
2023/02/26 10:42:46;;;;;;;;;23.75;14.00;;;;;;;;5077869;27;51446;-53
2023/02/26 10:45:49;;;;;;;;;19.75;15.50;;;;;;;;5081590;27;51035;-51
2023/02/26 10:48:33;;;;;;;;;22.00;14.50;;;;;;;;5077457;27;51185;-53
2023/02/26 10:51:19;;;;;;;;;60.50;44.25;;;;;;;;5077055;27;51158;-51
2023/02/26 10:54:10;;;;;;;;;31.25;24.25;;;;;;;;5065532;27;51997;-51
2023/02/26 10:56:55;;;;;;;;;22.75;19.25;;;;;;;;5075893;27;51126;-54
2023/02/26 10:59:49;;;;;;;;;17.00;14.75;;;;;;;;5011953;28;51158;-54
2023/02/26 11:02:44;;;;;;;;;27.75;13.75;;;;;;;;5017008;28;51969;-52
2023/02/26 11:05:30;;;;;;;;;25.25;17.75;;;;;;;;5003847;28;51255;-54
2023/02/26 11:08:17;;;;;;;;;24.50;17.25;;;;;;;;4996225;28;51141;-51
2023/02/26 11:11:04;;;;;;;;;19.75;16.00;;;;;;;;5006759;28;51177;-53
2023/02/26 11:13:48;;;;;;;;;18.50;14.00;;;;;;;;5012367;28;51529;-50
2023/02/26 11:16:33;;;;;;;;;20.25;17.00;;;;;;;;4997948;28;51237;-54
2023/02/26 11:19:19;;;;;;;;;22.25;15.50;;;;;;;;4998082;28;51212;-53
2023/02/26 11:22:05;;;;;;;;;19.75;16.75;;;;;;;;4997753;28;51173;-52
2023/02/26 11:24:50;;;;;;;;;16.50;15.50;;;;;;;;4997872;28;51248;-51
2023/02/26 11:27:36;;;;;;;;;14.50;10.75;;;;;;;;5001106;28;51145;-54
2023/02/26 11:30:24;;;;;;;;;20.00;15.00;;;;;;;;4998745;28;51326;-53
2023/02/26 11:33:20;;;;;;;;;21.50;16.25;;;;;;;;5005152;28;51131;-49
2023/02/26 11:36:16;;;;;;;;;15.75;14.00;;;;;;;;5043090;27;51383;-51
2023/02/26 11:39:02;;;;;;;;;17.00;14.00;;;;;;;;5080134;27;51099;-51
2023/02/26 11:41:48;;;;;;;;;15.75;12.75;;;;;;;;5080188;27;51145;-52
2023/02/26 11:44:38;;;;;;;;;17.25;9.25;;;;;;;;5080126;27;51058;-51
2023/02/26 11:47:25;;;;;;;;;16.75;13.25;;;;;;;;5078104;27;51187;-54
2023/02/26 11:50:18;;;;;;;;;15.25;14.00;;;;;;;;5077821;27;51134;-51
2023/02/26 11:53:06;;;;;;;;;17.50;14.50;;;;;;;;5079986;27;51081;-53
2023/02/26 11:55:52;;;;;;;;;7.75;7.75;;;;;;;;5080220;27;51120;-54
2023/02/26 11:58:51;;;;;;;;;16.75;13.50;;;;;;;;5031936;28;51427;-54
2023/02/26 12:01:36;;;;;;;;;16.50;14.50;;;;;;;;5037119;28;51100;-50
2023/02/26 12:04:22;;;;;;;;;18.00;13.00;;;;;;;;5023427;28;51428;-54
2023/02/26 12:07:13;;;;;;;;;22.25;15.25;;;;;;;;5016058;28;51112;-53
2023/02/26 12:09:58;;;;;;;;;17.25;11.75;;;;;;;;5029708;28;51435;-51
2023/02/26 12:13:00;;;;;;;;;20.50;15.75;;;;;;;;5029427;28;51279;-50
2023/02/26 12:15:45;;;;;;;;;20.00;15.25;;;;;;;;5034603;28;51181;-52
2023/02/26 12:18:41;;;;;;;;;22.00;15.00;;;;;;;;5036747;28;51112;-51
2023/02/26 12:21:25;;;;;;;;;19.75;14.75;;;;;;;;5015674;28;51151;-51
2023/02/26 12:24:09;;;;;;;;;21.75;16.00;;;;;;;;5033208;28;51543;-55
2023/02/26 12:27:04;;;;;;;;;12.75;12.50;;;;;;;;5037129;28;51066;-53
2023/02/26 12:30:06;;;;;;;;;21.25;15.50;;;;;;;;5036754;28;51461;-54
2023/02/26 12:33:12;;;;;;;;;18.50;11.75;;;;;;;;5036737;28;51203;-51
2023/02/26 12:35:58;;;;;;;;;16.50;14.25;;;;;;;;5079664;28;51109;-53
2023/02/26 12:38:57;;;;;;;;;16.50;14.25;;;;;;;;5072116;28;51093;-53
2023/02/26 12:42:00;;;;;;;;;19.25;16.00;;;;;;;;5079895;28;51181;-51
2023/02/26 12:44:48;;;;;;;;;18.25;15.00;;;;;;;;5079566;28;51225;-55
2023/02/26 12:47:50;;;;;;;;;23.75;13.75;;;;;;;;5079497;28;51115;-54
2023/02/26 12:50:35;;;;;;;;;17.25;15.50;;;;;;;;5074497;28;51114;-56
2023/02/26 12:53:26;;;;;;;;;21.25;17.00;;;;;;;;5072805;28;51066;-52
2023/02/26 12:56:10;;;;;;;;;12.00;7.00;;;;;;;;5074777;28;51541;-56
2023/02/26 12:59:03;;;;;;;;;20.25;16.25;;;;;;;;5078848;28;51148;-52
2023/02/26 13:02:19;;;;;;;;;14.50;12.50;;;;;;;;5076437;28;51962;-52
2023/02/26 13:05:22;;;;;;;;;17.00;12.75;;;;;;;;5077918;28;51180;-56
2023/02/26 13:08:10;;;;;;;;;18.00;11.75;;;;;;;;5074951;28;51262;-53
2023/02/26 13:11:02;;;;;;;;;18.00;13.50;;;;;;;;5075877;28;51146;-50
2023/02/26 13:13:53;;;;;;;;;16.75;13.50;;;;;;;;5078973;28;51232;-54
2023/02/26 13:16:52;;;;;;;;;16.00;12.25;;;;;;;;5079153;28;51062;-56
2023/02/26 13:19:52;;;;;;;;;18.00;15.50;;;;;;;;5081784;27;51116;-51
2023/02/26 13:22:39;;;;;;;;;18.50;12.50;;;;;;;;5082777;27;51038;-56
2023/02/26 13:25:47;;;;;;;;;18.50;11.75;;;;;;;;5076100;27;51134;-54
2023/02/26 13:28:46;;;;;;;;;23.25;11.25;;;;;;;;5079528;27;51544;-53
2023/02/26 13:31:46;;;;;;;;;19.75;14.50;;;;;;;;5081676;27;50998;-54
2023/02/26 13:34:33;;;;;;;;;17.25;13.75;;;;;;;;5082295;27;51095;-53
2023/02/26 13:37:26;;;;;;;;;18.25;14.00;;;;;;;;5081849;27;51089;-53
2023/02/26 13:40:13;;;;;;;;;18.25;12.50;;;;;;;;5082379;27;51145;-54
2023/02/26 13:43:06;;;;;;;;;20.50;15.25;;;;;;;;5082275;27;50960;-51
2023/02/26 13:46:04;;;;;;;;;20.00;12.75;;;;;;;;5079950;27;51200;-56
2023/02/26 13:49:03;;;;;;;;;17.50;10.50;;;;;;;;5080643;27;51451;-48
2023/02/26 13:51:51;;;;;;;;;17.25;14.25;;;;;;;;5079740;27;51151;-53
2023/02/26 13:54:44;;;;;;;;;12.25;10.75;;;;;;;;5082440;27;51182;-57
2023/02/26 13:57:32;;;;;;;;;19.50;12.25;;;;;;;;5079014;27;51557;-58
2023/02/26 14:00:22;;;;;;;;;15.75;12.75;;;;;;;;5082316;27;51195;-55
2023/02/26 14:03:29;;;;;;;;;17.50;11.50;;;;;;;;5081774;27;51176;-53
2023/02/26 14:06:32;;;;;;;;;19.50;16.00;;;;;;;;5081660;27;51172;-52
2023/02/26 14:09:23;;;;;;;;;19.25;13.25;;;;;;;;5081969;27;51165;-55
2023/02/26 14:12:14;;;;;;;;;20.00;14.00;;;;;;;;5078421;27;51032;-56
2023/02/26 14:15:01;;;;;;;;;17.00;10.00;;;;;;;;5081807;27;51418;-54
2023/02/26 14:17:50;;;;;;;;;14.00;12.25;;;;;;;;5079795;27;51072;-51
2023/02/26 14:20:35;;;;;;;;;12.75;10.25;;;;;;;;5082023;27;51272;-57
2023/02/26 14:23:48;;;;;;;;;14.50;11.25;;;;;;;;5081472;27;51091;-57
2023/02/26 14:26:34;;;;;;;;;13.25;11.75;;;;;;;;5050447;28;51062;-58
2023/02/26 14:29:21;;;;;;;;;18.75;12.25;;;;;;;;5059785;28;51449;-52
2023/02/26 14:32:08;;;;;;;;;17.50;13.00;;;;;;;;5058750;28;51167;-56
2023/02/26 14:34:58;;;;;;;;;19.00;11.50;;;;;;;;5061194;28;51169;-54
2023/02/26 14:37:56;;;;;;;;;20.50;14.75;;;;;;;;5061489;28;51197;-53
2023/02/26 14:40:49;;;;;;;;;17.75;11.25;;;;;;;;5060983;28;51360;-54
2023/02/26 14:43:35;;;;;;;;;16.50;13.25;;;;;;;;5060959;28;51089;-52
2023/02/26 14:46:20;;;;;;;;;23.50;14.50;;;;;;;;5061054;28;51064;-58
2023/02/26 14:49:09;;;;;;;;;17.75;12.75;;;;;;;;5055998;28;51140;-53
2023/02/26 14:51:53;;;;;;;;;17.00;12.50;;;;;;;;5059369;28;51034;-56
2023/02/26 14:54:56;;;;;;;;;9.25;7.50;;;;;;;;5060554;28;51110;-56
2023/02/26 14:57:47;;;;;;;;;16.50;12.75;;;;;;;;5059863;28;51182;-56
2023/02/26 15:00:32;;;;;;;;;22.50;12.00;;;;;;;;5060455;28;51142;-59
2023/02/26 15:03:19;;;;;;;;;24.00;11.25;;;;;;;;5060890;28;51102;-58
2023/02/26 15:06:23;;;;;;;;;17.50;11.75;;;;;;;;5060539;28;51338;-55
2023/02/26 15:09:08;;;;;;;;;14.00;9.75;;;;;;;;5060549;28;51123;-56
2023/02/26 15:12:01;;;;;;;;;18.50;10.75;;;;;;;;5060812;28;51412;-58
2023/02/26 15:15:15;;;;;;;;;15.00;13.00;;;;;;;;5060279;28;51106;-55
2023/02/26 15:18:18;;;;;;;;;19.25;13.00;;;;;;;;4983749;28;51038;-56
2023/02/26 15:21:21;;;;;;;;;16.75;10.75;;;;;;;;5060260;28;51375;-55
2023/02/26 15:24:09;;;;;;;;;13.00;9.50;;;;;;;;5057430;28;51154;-53
2023/02/26 15:26:58;;;;;;;;;14.00;11.25;;;;;;;;5075161;27;51156;-57
2023/02/26 15:29:43;;;;;;;;;16.50;11.50;;;;;;;;5080480;27;51378;-60
2023/02/26 15:32:30;;;;;;;;;16.50;13.25;;;;;;;;5073733;27;51315;-60
2023/02/26 15:35:16;;;;;;;;;28.50;14.25;;;;;;;;5080562;27;51054;-58
2023/02/26 15:38:02;;;;;;;;;20.25;14.50;;;;;;;;5080442;27;51138;-52
2023/02/26 15:40:48;;;;;;;;;28.00;18.50;;;;;;;;5072860;27;51115;-56
2023/02/26 15:43:32;;;;;;;;;16.75;15.00;;;;;;;;5073429;27;51104;-55
2023/02/26 15:46:19;;;;;;;;;19.25;13.50;;;;;;;;5080045;27;51375;-56
2023/02/26 15:49:12;;;;;;;;;19.50;12.25;;;;;;;;5080223;27;51485;-57
2023/02/26 15:51:58;;;;;;;;;15.75;12.50;;;;;;;;5080033;27;51155;-52
2023/02/26 15:54:46;;;;;;;;;15.25;11.00;;;;;;;;5076498;27;51218;-55
2023/02/26 15:57:31;;;;;;;;;18.25;12.75;;;;;;;;5073750;27;51179;-52
2023/02/26 16:00:16;;;;;;;;;21.75;13.75;;;;;;;;5071069;27;51142;-53
2023/02/26 16:03:00;;;;;;;;;16.50;12.75;;;;;;;;5079827;27;51398;-55
2023/02/26 16:05:47;;;;;;;;;13.50;6.50;;;;;;;;5070468;27;51048;-56
2023/02/26 16:08:31;;;;;;;;;18.75;12.00;;;;;;;;5071158;27;51060;-55
2023/02/26 16:11:16;;;;;;;;;18.25;9.50;;;;;;;;5069840;27;51079;-57
2023/02/26 16:14:01;;;;;;;;;13.00;10.00;;;;;;;;5067595;27;51152;-56
2023/02/26 16:16:48;;;;;;;;;22.25;14.00;;;;;;;;5071092;27;51107;-54
2023/02/26 16:19:37;;;;;;;;;13.75;8.75;;;;;;;;5072081;27;51175;-56